sensor_id;sensor_type;location;lat;lon;timestamp;temperature;humidity
9723;DHT22;4900;49.306;8.500;2023-06-22T00:01:58;25.10;65.66
9723;DHT22;4900;49.306;8.500;2023-06-22T00:04:23;25.03;65.70
9723;DHT22;4900;49.306;8.500;2023-06-22T00:06:49;25.00;65.64
9723;DHT22;4900;49.306;8.500;2023-06-22T00:09:14;24.96;65.63
9723;DHT22;4900;49.306;8.500;2023-06-22T00:11:39;24.96;65.63
9723;DHT22;4900;49.306;8.500;2023-06-22T00:14:05;24.94;65.57
9723;DHT22;4900;49.306;8.500;2023-06-22T00:16:34;24.88;65.69
9723;DHT22;4900;49.306;8.500;2023-06-22T00:18:59;24.83;65.93
9723;DHT22;4900;49.306;8.500;2023-06-22T00:21:29;24.83;66.18
9723;DHT22;4900;49.306;8.500;2023-06-22T00:23:56;24.83;66.52
9723;DHT22;4900;49.306;8.500;2023-06-22T00:26:22;24.82;66.69
9723;DHT22;4900;49.306;8.500;2023-06-22T00:28:48;24.78;66.83
9723;DHT22;4900;49.306;8.500;2023-06-22T00:31:13;24.79;66.87
9723;DHT22;4900;49.306;8.500;2023-06-22T00:33:39;24.79;67.02
9723;DHT22;4900;49.306;8.500;2023-06-22T00:36:05;24.73;67.21
9723;DHT22;4900;49.306;8.500;2023-06-22T00:38:31;24.67;67.43
9723;DHT22;4900;49.306;8.500;2023-06-22T00:40:57;24.55;68.12
9723;DHT22;4900;49.306;8.500;2023-06-22T00:43:22;24.51;68.54
9723;DHT22;4900;49.306;8.500;2023-06-22T00:45:48;24.44;68.96
9723;DHT22;4900;49.306;8.500;2023-06-22T00:48:14;24.48;68.63
9723;DHT22;4900;49.306;8.500;2023-06-22T00:50:40;24.52;68.20
9723;DHT22;4900;49.306;8.500;2023-06-22T00:53:07;24.61;68.42
9723;DHT22;4900;49.306;8.500;2023-06-22T00:55:45;24.65;69.60
9723;DHT22;4900;49.306;8.500;2023-06-22T00:58:13;24.58;70.26
9723;DHT22;4900;49.306;8.500;2023-06-22T01:00:39;24.57;70.90
9723;DHT22;4900;49.306;8.500;2023-06-22T01:03:06;24.57;70.68
9723;DHT22;4900;49.306;8.500;2023-06-22T01:05:36;24.50;70.98
9723;DHT22;4900;49.306;8.500;2023-06-22T01:08:36;24.47;71.28
9723;DHT22;4900;49.306;8.500;2023-06-22T01:11:17;24.40;71.67
9723;DHT22;4900;49.306;8.500;2023-06-22T01:14:12;24.40;71.57
9723;DHT22;4900;49.306;8.500;2023-06-22T01:16:41;24.40;71.64
9723;DHT22;4900;49.306;8.500;2023-06-22T01:22:02;24.45;71.24
9723;DHT22;4900;49.306;8.500;2023-06-22T01:24:51;24.48;70.90
9723;DHT22;4900;49.306;8.500;2023-06-22T01:27:44;24.50;70.69
9723;DHT22;4900;49.306;8.500;2023-06-22T01:30:13;24.51;70.61
9723;DHT22;4900;49.306;8.500;2023-06-22T01:32:41;24.50;70.68
9723;DHT22;4900;49.306;8.500;2023-06-22T01:35:07;24.48;70.62
9723;DHT22;4900;49.306;8.500;2023-06-22T01:37:34;24.47;70.65
9723;DHT22;4900;49.306;8.500;2023-06-22T01:40:01;24.37;70.98
9723;DHT22;4900;49.306;8.500;2023-06-22T01:42:27;24.37;71.10
9723;DHT22;4900;49.306;8.500;2023-06-22T01:44:53;24.33;71.44
9723;DHT22;4900;49.306;8.500;2023-06-22T01:47:20;24.30;71.64
9723;DHT22;4900;49.306;8.500;2023-06-22T01:49:48;24.24;71.58
9723;DHT22;4900;49.306;8.500;2023-06-22T01:52:17;24.21;71.60
9723;DHT22;4900;49.306;8.500;2023-06-22T01:54:42;24.20;71.59
9723;DHT22;4900;49.306;8.500;2023-06-22T01:57:08;24.14;71.49
9723;DHT22;4900;49.306;8.500;2023-06-22T01:59:35;24.10;71.50
9723;DHT22;4900;49.306;8.500;2023-06-22T02:02:10;24.06;71.59
9723;DHT22;4900;49.306;8.500;2023-06-22T02:04:57;24.00;71.73
9723;DHT22;4900;49.306;8.500;2023-06-22T02:07:28;23.99;71.77
9723;DHT22;4900;49.306;8.500;2023-06-22T02:09:56;23.96;71.88
9723;DHT22;4900;49.306;8.500;2023-06-22T02:12:23;23.95;71.97
9723;DHT22;4900;49.306;8.500;2023-06-22T02:14:51;23.90;72.15
9723;DHT22;4900;49.306;8.500;2023-06-22T02:17:17;23.88;72.44
9723;DHT22;4900;49.306;8.500;2023-06-22T02:19:43;23.88;72.71
9723;DHT22;4900;49.306;8.500;2023-06-22T02:22:09;23.85;72.85
9723;DHT22;4900;49.306;8.500;2023-06-22T02:24:35;23.84;72.84
9723;DHT22;4900;49.306;8.500;2023-06-22T02:27:01;23.82;72.85
9723;DHT22;4900;49.306;8.500;2023-06-22T02:29:28;23.79;72.89
9723;DHT22;4900;49.306;8.500;2023-06-22T02:31:54;23.79;72.83
9723;DHT22;4900;49.306;8.500;2023-06-22T02:34:21;23.74;72.69
9723;DHT22;4900;49.306;8.500;2023-06-22T02:36:47;23.74;72.62
9723;DHT22;4900;49.306;8.500;2023-06-22T02:39:22;23.68;72.63
9723;DHT22;4900;49.306;8.500;2023-06-22T02:41:52;23.66;72.61
9723;DHT22;4900;49.306;8.500;2023-06-22T02:44:18;23.62;72.60
9723;DHT22;4900;49.306;8.500;2023-06-22T02:46:44;23.58;72.70
9723;DHT22;4900;49.306;8.500;2023-06-22T02:49:10;23.57;72.67
9723;DHT22;4900;49.306;8.500;2023-06-22T02:51:38;23.52;72.57
9723;DHT22;4900;49.306;8.500;2023-06-22T02:54:05;23.44;72.77
9723;DHT22;4900;49.306;8.500;2023-06-22T02:56:31;23.43;72.91
9723;DHT22;4900;49.306;8.500;2023-06-22T02:58:56;23.43;72.90
9723;DHT22;4900;49.306;8.500;2023-06-22T03:01:27;23.38;72.90
9723;DHT22;4900;49.306;8.500;2023-06-22T03:03:53;23.35;72.94
9723;DHT22;4900;49.306;8.500;2023-06-22T03:06:19;23.30;72.99
9723;DHT22;4900;49.306;8.500;2023-06-22T03:08:49;23.28;73.03
9723;DHT22;4900;49.306;8.500;2023-06-22T03:11:15;23.23;73.15
9723;DHT22;4900;49.306;8.500;2023-06-22T03:13:40;23.20;73.35
9723;DHT22;4900;49.306;8.500;2023-06-22T03:16:06;23.19;73.44
9723;DHT22;4900;49.306;8.500;2023-06-22T03:18:31;23.19;73.52
9723;DHT22;4900;49.306;8.500;2023-06-22T03:20:56;23.16;73.56
9723;DHT22;4900;49.306;8.500;2023-06-22T03:23:22;23.12;73.60
9723;DHT22;4900;49.306;8.500;2023-06-22T03:25:47;23.13;73.72
9723;DHT22;4900;49.306;8.500;2023-06-22T03:28:13;23.13;73.82
9723;DHT22;4900;49.306;8.500;2023-06-22T03:30:38;23.15;73.86
9723;DHT22;4900;49.306;8.500;2023-06-22T03:33:03;23.15;73.83
9723;DHT22;4900;49.306;8.500;2023-06-22T03:35:29;23.16;73.72
9723;DHT22;4900;49.306;8.500;2023-06-22T03:37:54;23.19;73.79
9723;DHT22;4900;49.306;8.500;2023-06-22T03:40:20;23.20;73.77
9723;DHT22;4900;49.306;8.500;2023-06-22T03:42:46;23.20;73.90
9723;DHT22;4900;49.306;8.500;2023-06-22T03:45:11;23.24;73.85
9723;DHT22;4900;49.306;8.500;2023-06-22T03:47:37;23.27;73.84
9723;DHT22;4900;49.306;8.500;2023-06-22T03:50:02;23.27;73.87
9723;DHT22;4900;49.306;8.500;2023-06-22T03:52:29;23.27;73.81
9723;DHT22;4900;49.306;8.500;2023-06-22T03:54:55;23.28;73.72
9723;DHT22;4900;49.306;8.500;2023-06-22T03:57:21;23.33;73.66
9723;DHT22;4900;49.306;8.500;2023-06-22T03:59:46;23.34;73.54
9723;DHT22;4900;49.306;8.500;2023-06-22T04:02:12;23.34;73.51
9723;DHT22;4900;49.306;8.500;2023-06-22T04:04:37;23.37;73.50
9723;DHT22;4900;49.306;8.500;2023-06-22T04:07:04;23.37;73.51
9723;DHT22;4900;49.306;8.500;2023-06-22T04:09:29;23.44;73.45
9723;DHT22;4900;49.306;8.500;2023-06-22T04:11:55;23.45;73.37
9723;DHT22;4900;49.306;8.500;2023-06-22T04:14:20;23.50;73.33
9723;DHT22;4900;49.306;8.500;2023-06-22T04:16:46;23.50;73.31
9723;DHT22;4900;49.306;8.500;2023-06-22T04:19:11;23.52;73.30
9723;DHT22;4900;49.306;8.500;2023-06-22T04:21:42;23.55;73.31
9723;DHT22;4900;49.306;8.500;2023-06-22T04:24:08;23.58;73.44
9723;DHT22;4900;49.306;8.500;2023-06-22T04:26:34;23.62;73.50
9723;DHT22;4900;49.306;8.500;2023-06-22T04:29:02;23.64;73.55
9723;DHT22;4900;49.306;8.500;2023-06-22T04:31:33;23.69;73.50
9723;DHT22;4900;49.306;8.500;2023-06-22T04:34:02;23.74;73.33
9723;DHT22;4900;49.306;8.500;2023-06-22T04:36:35;23.77;73.10
9723;DHT22;4900;49.306;8.500;2023-06-22T04:39:09;23.81;73.07
9723;DHT22;4900;49.306;8.500;2023-06-22T04:41:39;23.82;72.95
9723;DHT22;4900;49.306;8.500;2023-06-22T04:44:15;23.85;72.76
9723;DHT22;4900;49.306;8.500;2023-06-22T04:46:55;23.92;72.79
9723;DHT22;4900;49.306;8.500;2023-06-22T04:49:26;23.98;72.93
9723;DHT22;4900;49.306;8.500;2023-06-22T04:51:59;24.05;72.91
9723;DHT22;4900;49.306;8.500;2023-06-22T04:54:25;24.09;72.81
9723;DHT22;4900;49.306;8.500;2023-06-22T04:56:50;24.12;72.83
9723;DHT22;4900;49.306;8.500;2023-06-22T04:59:22;24.17;72.82
9723;DHT22;4900;49.306;8.500;2023-06-22T05:01:47;24.23;72.72
9723;DHT22;4900;49.306;8.500;2023-06-22T05:04:13;24.28;72.59
9723;DHT22;4900;49.306;8.500;2023-06-22T05:06:38;24.34;72.39
9723;DHT22;4900;49.306;8.500;2023-06-22T05:09:04;24.41;72.24
9723;DHT22;4900;49.306;8.500;2023-06-22T05:11:31;24.43;72.43
9723;DHT22;4900;49.306;8.500;2023-06-22T05:13:56;24.51;72.56
9723;DHT22;4900;49.306;8.500;2023-06-22T05:16:24;24.55;72.57
9723;DHT22;4900;49.306;8.500;2023-06-22T05:18:52;24.65;72.48
9723;DHT22;4900;49.306;8.500;2023-06-22T05:21:18;24.72;72.17
9723;DHT22;4900;49.306;8.500;2023-06-22T05:23:44;24.78;72.09
9723;DHT22;4900;49.306;8.500;2023-06-22T05:26:09;24.85;71.92
9723;DHT22;4900;49.306;8.500;2023-06-22T05:28:35;24.89;71.77
9723;DHT22;4900;49.306;8.500;2023-06-22T05:31:01;25.00;71.67
9723;DHT22;4900;49.306;8.500;2023-06-22T05:33:26;25.09;71.35
9723;DHT22;4900;49.306;8.500;2023-06-22T05:35:51;25.20;71.00
9723;DHT22;4900;49.306;8.500;2023-06-22T05:38:17;25.26;70.86
9723;DHT22;4900;49.306;8.500;2023-06-22T05:40:42;25.37;70.73
9723;DHT22;4900;49.306;8.500;2023-06-22T05:43:08;25.50;70.44
9723;DHT22;4900;49.306;8.500;2023-06-22T05:45:34;25.59;69.88
9723;DHT22;4900;49.306;8.500;2023-06-22T05:48:00;25.71;69.55
9723;DHT22;4900;49.306;8.500;2023-06-22T05:50:27;25.84;69.10
9723;DHT22;4900;49.306;8.500;2023-06-22T05:52:53;25.96;68.71
9723;DHT22;4900;49.306;8.500;2023-06-22T05:55:19;26.09;68.35
9723;DHT22;4900;49.306;8.500;2023-06-22T05:57:44;26.19;67.94
9723;DHT22;4900;49.306;8.500;2023-06-22T06:00:10;26.36;67.26
9723;DHT22;4900;49.306;8.500;2023-06-22T06:02:38;26.48;66.85
9723;DHT22;4900;49.306;8.500;2023-06-22T06:05:10;26.67;66.29
9723;DHT22;4900;49.306;8.500;2023-06-22T06:07:36;26.92;65.57
9723;DHT22;4900;49.306;8.500;2023-06-22T06:10:02;27.35;64.63
9723;DHT22;4900;49.306;8.500;2023-06-22T06:12:29;27.85;63.24
9723;DHT22;4900;49.306;8.500;2023-06-22T06:14:55;28.24;61.70
9723;DHT22;4900;49.306;8.500;2023-06-22T06:17:22;28.75;60.61
9723;DHT22;4900;49.306;8.500;2023-06-22T06:19:50;29.16;59.06
9723;DHT22;4900;49.306;8.500;2023-06-22T06:22:16;29.55;58.12
9723;DHT22;4900;49.306;8.500;2023-06-22T06:24:42;29.93;57.04
9723;DHT22;4900;49.306;8.500;2023-06-22T06:27:07;30.31;56.19
9723;DHT22;4900;49.306;8.500;2023-06-22T06:29:33;30.69;55.12
9723;DHT22;4900;49.306;8.500;2023-06-22T06:31:59;31.10;54.16
9723;DHT22;4900;49.306;8.500;2023-06-22T06:34:24;31.52;53.28
9723;DHT22;4900;49.306;8.500;2023-06-22T06:36:49;31.71;52.43
9723;DHT22;4900;49.306;8.500;2023-06-22T06:39:15;31.99;51.68
9723;DHT22;4900;49.306;8.500;2023-06-22T06:41:41;32.10;51.03
9723;DHT22;4900;49.306;8.500;2023-06-22T06:44:06;32.47;50.15
9723;DHT22;4900;49.306;8.500;2023-06-22T06:46:32;32.85;49.51
9723;DHT22;4900;49.306;8.500;2023-06-22T06:48:57;32.98;49.02
9723;DHT22;4900;49.306;8.500;2023-06-22T06:51:23;33.09;48.70
9723;DHT22;4900;49.306;8.500;2023-06-22T06:53:49;33.43;47.83
9723;DHT22;4900;49.306;8.500;2023-06-22T06:56:14;33.87;47.27
9723;DHT22;4900;49.306;8.500;2023-06-22T06:58:43;33.99;46.92
9723;DHT22;4900;49.306;8.500;2023-06-22T07:01:11;34.32;46.36
9723;DHT22;4900;49.306;8.500;2023-06-22T07:03:37;34.68;45.79
9723;DHT22;4900;49.306;8.500;2023-06-22T07:06:02;34.99;45.23
9723;DHT22;4900;49.306;8.500;2023-06-22T07:08:27;35.46;44.61
9723;DHT22;4900;49.306;8.500;2023-06-22T07:10:53;35.76;43.79
9723;DHT22;4900;49.306;8.500;2023-06-22T07:13:19;35.72;43.30
9723;DHT22;4900;49.306;8.500;2023-06-22T07:15:44;35.86;42.89
9723;DHT22;4900;49.306;8.500;2023-06-22T07:18:10;35.64;42.64
9723;DHT22;4900;49.306;8.500;2023-06-22T07:20:35;35.69;42.16
9723;DHT22;4900;49.306;8.500;2023-06-22T07:23:01;35.88;41.95
9723;DHT22;4900;49.306;8.500;2023-06-22T07:25:26;35.84;41.80
9723;DHT22;4900;49.306;8.500;2023-06-22T07:28:01;36.01;41.53
9723;DHT22;4900;49.306;8.500;2023-06-22T07:30:27;36.15;41.66
9723;DHT22;4900;49.306;8.500;2023-06-22T07:32:53;36.20;41.56
9723;DHT22;4900;49.306;8.500;2023-06-22T07:35:18;36.32;41.62
9723;DHT22;4900;49.306;8.500;2023-06-22T07:37:44;36.57;41.14
9723;DHT22;4900;49.306;8.500;2023-06-22T07:40:10;36.87;40.83
9723;DHT22;4900;49.306;8.500;2023-06-22T07:42:36;37.27;40.40
9723;DHT22;4900;49.306;8.500;2023-06-22T07:45:03;37.76;39.65
9723;DHT22;4900;49.306;8.500;2023-06-22T07:47:28;37.86;39.76
9723;DHT22;4900;49.306;8.500;2023-06-22T07:49:55;38.27;38.85
9723;DHT22;4900;49.306;8.500;2023-06-22T07:52:24;38.83;38.42
9723;DHT22;4900;49.306;8.500;2023-06-22T07:54:50;39.02;38.18
9723;DHT22;4900;49.306;8.500;2023-06-22T07:57:16;39.50;38.03
9723;DHT22;4900;49.306;8.500;2023-06-22T07:59:41;39.69;37.52
9723;DHT22;4900;49.306;8.500;2023-06-22T08:02:07;39.72;36.89
9723;DHT22;4900;49.306;8.500;2023-06-22T08:04:33;39.41;36.95
9723;DHT22;4900;49.306;8.500;2023-06-22T08:07:00;39.73;36.64
9723;DHT22;4900;49.306;8.500;2023-06-22T08:09:28;39.81;36.32
9723;DHT22;4900;49.306;8.500;2023-06-22T08:11:53;39.47;36.61
9723;DHT22;4900;49.306;8.500;2023-06-22T08:14:20;38.99;37.02
9723;DHT22;4900;49.306;8.500;2023-06-22T08:16:47;39.04;36.89
9723;DHT22;4900;49.306;8.500;2023-06-22T08:19:12;39.69;36.09
9723;DHT22;4900;49.306;8.500;2023-06-22T08:21:38;40.17;36.12
9723;DHT22;4900;49.306;8.500;2023-06-22T08:24:04;40.49;35.46
9723;DHT22;4900;49.306;8.500;2023-06-22T08:26:29;40.72;35.21
9723;DHT22;4900;49.306;8.500;2023-06-22T08:28:55;40.91;34.71
9723;DHT22;4900;49.306;8.500;2023-06-22T08:31:20;41.14;34.30
9723;DHT22;4900;49.306;8.500;2023-06-22T08:33:46;41.37;34.22
9723;DHT22;4900;49.306;8.500;2023-06-22T08:36:11;41.65;33.83
9723;DHT22;4900;49.306;8.500;2023-06-22T08:38:39;41.89;33.25
9723;DHT22;4900;49.306;8.500;2023-06-22T08:41:04;42.29;32.83
9723;DHT22;4900;49.306;8.500;2023-06-22T08:43:30;42.60;32.38
9723;DHT22;4900;49.306;8.500;2023-06-22T08:45:55;42.89;31.96
9723;DHT22;4900;49.306;8.500;2023-06-22T08:48:21;43.06;31.85
9723;DHT22;4900;49.306;8.500;2023-06-22T08:50:46;43.46;30.99
9723;DHT22;4900;49.306;8.500;2023-06-22T08:53:12;43.39;30.85
9723;DHT22;4900;49.306;8.500;2023-06-22T08:55:38;43.67;30.68
9723;DHT22;4900;49.306;8.500;2023-06-22T08:58:04;43.54;30.52
9723;DHT22;4900;49.306;8.500;2023-06-22T09:00:30;43.80;30.23
9723;DHT22;4900;49.306;8.500;2023-06-22T09:02:58;43.53;30.52
9723;DHT22;4900;49.306;8.500;2023-06-22T09:05:24;44.05;30.16
9723;DHT22;4900;49.306;8.500;2023-06-22T09:07:51;44.08;29.74
9723;DHT22;4900;49.306;8.500;2023-06-22T09:10:16;44.33;29.76
9723;DHT22;4900;49.306;8.500;2023-06-22T09:12:42;44.15;30.07
9723;DHT22;4900;49.306;8.500;2023-06-22T09:15:08;43.98;30.34
9723;DHT22;4900;49.306;8.500;2023-06-22T09:17:34;43.81;30.36
9723;DHT22;4900;49.306;8.500;2023-06-22T09:20:00;43.68;30.42
9723;DHT22;4900;49.306;8.500;2023-06-22T09:22:26;43.51;30.50
9723;DHT22;4900;49.306;8.500;2023-06-22T09:24:55;42.74;30.95
9723;DHT22;4900;49.306;8.500;2023-06-22T09:27:21;42.34;31.04
9723;DHT22;4900;49.306;8.500;2023-06-22T09:29:47;42.50;31.20
9723;DHT22;4900;49.306;8.500;2023-06-22T09:32:13;42.90;31.22
9723;DHT22;4900;49.306;8.500;2023-06-22T09:34:38;43.36;30.87
9723;DHT22;4900;49.306;8.500;2023-06-22T09:37:04;43.70;30.31
9723;DHT22;4900;49.306;8.500;2023-06-22T09:39:32;44.09;29.77
9723;DHT22;4900;49.306;8.500;2023-06-22T09:42:00;44.37;29.67
9723;DHT22;4900;49.306;8.500;2023-06-22T09:44:26;44.84;29.11
9723;DHT22;4900;49.306;8.500;2023-06-22T09:46:51;45.09;28.74
9723;DHT22;4900;49.306;8.500;2023-06-22T09:49:17;44.73;28.83
9723;DHT22;4900;49.306;8.500;2023-06-22T09:51:42;45.23;28.62
9723;DHT22;4900;49.306;8.500;2023-06-22T09:54:08;45.50;28.21
9723;DHT22;4900;49.306;8.500;2023-06-22T09:56:33;45.53;28.08
9723;DHT22;4900;49.306;8.500;2023-06-22T09:58:59;45.12;28.33
9723;DHT22;4900;49.306;8.500;2023-06-22T10:01:24;44.95;28.14
9723;DHT22;4900;49.306;8.500;2023-06-22T10:03:51;44.55;28.59
9723;DHT22;4900;49.306;8.500;2023-06-22T10:06:19;43.61;29.55
9723;DHT22;4900;49.306;8.500;2023-06-22T10:08:45;43.62;29.79
9723;DHT22;4900;49.306;8.500;2023-06-22T10:11:13;43.26;30.24
9723;DHT22;4900;49.306;8.500;2023-06-22T10:13:38;43.20;30.26
9723;DHT22;4900;49.306;8.500;2023-06-22T10:16:04;42.95;30.59
9723;DHT22;4900;49.306;8.500;2023-06-22T10:18:29;42.67;31.07
9723;DHT22;4900;49.306;8.500;2023-06-22T10:20:56;42.51;31.54
9723;DHT22;4900;49.306;8.500;2023-06-22T10:23:21;42.20;31.82
9723;DHT22;4900;49.306;8.500;2023-06-22T10:25:47;41.80;31.96
9723;DHT22;4900;49.306;8.500;2023-06-22T10:28:12;41.37;32.38
9723;DHT22;4900;49.306;8.500;2023-06-22T10:30:39;40.99;32.90
9723;DHT22;4900;49.306;8.500;2023-06-22T10:33:07;40.58;33.16
9723;DHT22;4900;49.306;8.500;2023-06-22T10:35:33;40.62;33.13
9723;DHT22;4900;49.306;8.500;2023-06-22T10:37:58;40.82;33.05
9723;DHT22;4900;49.306;8.500;2023-06-22T10:40:24;41.03;32.80
9723;DHT22;4900;49.306;8.500;2023-06-22T10:42:50;41.40;32.53
9723;DHT22;4900;49.306;8.500;2023-06-22T10:45:15;42.16;31.71
9723;DHT22;4900;49.306;8.500;2023-06-22T10:47:41;43.07;31.13
9723;DHT22;4900;49.306;8.500;2023-06-22T10:50:10;43.62;30.60
9723;DHT22;4900;49.306;8.500;2023-06-22T10:52:35;44.18;29.79
9723;DHT22;4900;49.306;8.500;2023-06-22T10:55:01;44.63;29.25
9723;DHT22;4900;49.306;8.500;2023-06-22T10:57:26;44.85;28.56
9723;DHT22;4900;49.306;8.500;2023-06-22T10:59:52;44.80;28.79
9723;DHT22;4900;49.306;8.500;2023-06-22T11:02:17;44.68;28.71
9723;DHT22;4900;49.306;8.500;2023-06-22T11:04:43;43.94;28.94
9723;DHT22;4900;49.306;8.500;2023-06-22T11:07:09;43.54;29.56
9723;DHT22;4900;49.306;8.500;2023-06-22T11:09:34;43.44;29.48
9723;DHT22;4900;49.306;8.500;2023-06-22T11:12:00;43.05;29.61
9723;DHT22;4900;49.306;8.500;2023-06-22T11:14:25;43.10;29.78
9723;DHT22;4900;49.306;8.500;2023-06-22T11:16:51;43.07;29.36
9723;DHT22;4900;49.306;8.500;2023-06-22T11:19:17;42.67;29.72
9723;DHT22;4900;49.306;8.500;2023-06-22T11:21:43;42.06;30.13
9723;DHT22;4900;49.306;8.500;2023-06-22T11:24:08;41.68;31.01
9723;DHT22;4900;49.306;8.500;2023-06-22T11:26:34;41.53;31.21
9723;DHT22;4900;49.306;8.500;2023-06-22T11:29:00;41.70;31.14
9723;DHT22;4900;49.306;8.500;2023-06-22T11:31:27;42.13;30.72
9723;DHT22;4900;49.306;8.500;2023-06-22T11:33:52;42.68;30.21
9723;DHT22;4900;49.306;8.500;2023-06-22T11:36:18;43.39;29.53
9723;DHT22;4900;49.306;8.500;2023-06-22T11:38:44;43.34;29.22
9723;DHT22;4900;49.306;8.500;2023-06-22T11:41:10;43.36;29.14
9723;DHT22;4900;49.306;8.500;2023-06-22T11:43:36;43.47;29.14
9723;DHT22;4900;49.306;8.500;2023-06-22T11:46:04;43.37;29.43
9723;DHT22;4900;49.306;8.500;2023-06-22T11:48:31;43.51;29.56
9723;DHT22;4900;49.306;8.500;2023-06-22T11:50:56;43.62;29.48
9723;DHT22;4900;49.306;8.500;2023-06-22T11:53:24;43.61;29.38
9723;DHT22;4900;49.306;8.500;2023-06-22T11:55:50;43.39;29.71
9723;DHT22;4900;49.306;8.500;2023-06-22T11:58:16;43.27;29.58
9723;DHT22;4900;49.306;8.500;2023-06-22T12:00:41;43.10;29.69
9723;DHT22;4900;49.306;8.500;2023-06-22T12:03:07;43.09;29.99
9723;DHT22;4900;49.306;8.500;2023-06-22T12:05:33;43.05;30.13
9723;DHT22;4900;49.306;8.500;2023-06-22T12:07:58;43.05;30.17
9723;DHT22;4900;49.306;8.500;2023-06-22T12:10:26;43.09;29.97
9723;DHT22;4900;49.306;8.500;2023-06-22T12:12:52;43.43;29.48
9723;DHT22;4900;49.306;8.500;2023-06-22T12:15:18;43.53;29.60
9723;DHT22;4900;49.306;8.500;2023-06-22T12:17:44;44.21;28.95
9723;DHT22;4900;49.306;8.500;2023-06-22T12:20:09;45.01;28.11
9723;DHT22;4900;49.306;8.500;2023-06-22T12:22:35;45.81;27.43
9723;DHT22;4900;49.306;8.500;2023-06-22T12:25:03;46.59;26.70
9723;DHT22;4900;49.306;8.500;2023-06-22T12:27:28;46.92;26.56
9723;DHT22;4900;49.306;8.500;2023-06-22T12:29:56;47.48;26.23
9723;DHT22;4900;49.306;8.500;2023-06-22T12:32:21;47.62;25.81
9723;DHT22;4900;49.306;8.500;2023-06-22T12:34:47;47.30;26.03
9723;DHT22;4900;49.306;8.500;2023-06-22T12:37:12;47.76;25.61
9723;DHT22;4900;49.306;8.500;2023-06-22T12:39:40;47.82;25.58
9723;DHT22;4900;49.306;8.500;2023-06-22T12:42:06;47.30;25.52
9723;DHT22;4900;49.306;8.500;2023-06-22T12:44:37;46.83;25.88
9723;DHT22;4900;49.306;8.500;2023-06-22T12:47:03;46.32;26.22
9723;DHT22;4900;49.306;8.500;2023-06-22T12:49:29;45.64;26.59
9723;DHT22;4900;49.306;8.500;2023-06-22T12:51:54;44.83;26.97
9723;DHT22;4900;49.306;8.500;2023-06-22T12:54:21;44.53;27.16
9723;DHT22;4900;49.306;8.500;2023-06-22T12:56:46;43.99;27.82
9723;DHT22;4900;49.306;8.500;2023-06-22T12:59:12;43.89;28.09
9723;DHT22;4900;49.306;8.500;2023-06-22T13:01:38;43.54;28.35
9723;DHT22;4900;49.306;8.500;2023-06-22T13:04:03;43.19;28.66
9723;DHT22;4900;49.306;8.500;2023-06-22T13:06:29;43.30;28.70
9723;DHT22;4900;49.306;8.500;2023-06-22T13:08:54;43.41;28.78
9723;DHT22;4900;49.306;8.500;2023-06-22T13:11:20;44.09;28.48
9723;DHT22;4900;49.306;8.500;2023-06-22T13:13:46;44.56;28.11
9723;DHT22;4900;49.306;8.500;2023-06-22T13:16:12;44.33;28.04
9723;DHT22;4900;49.306;8.500;2023-06-22T13:18:37;44.66;27.52
9723;DHT22;4900;49.306;8.500;2023-06-22T13:21:04;44.50;27.72
9723;DHT22;4900;49.306;8.500;2023-06-22T13:23:29;44.35;27.85
9723;DHT22;4900;49.306;8.500;2023-06-22T13:25:55;44.13;28.04
9723;DHT22;4900;49.306;8.500;2023-06-22T13:28:20;44.35;28.00
9723;DHT22;4900;49.306;8.500;2023-06-22T13:30:46;43.88;28.61
9723;DHT22;4900;49.306;8.500;2023-06-22T13:33:15;43.46;28.89
9723;DHT22;4900;49.306;8.500;2023-06-22T13:35:41;43.36;28.97
9723;DHT22;4900;49.306;8.500;2023-06-22T13:38:09;43.78;28.61
9723;DHT22;4900;49.306;8.500;2023-06-22T13:40:35;44.33;28.61
9723;DHT22;4900;49.306;8.500;2023-06-22T13:43:01;45.00;28.14
9723;DHT22;4900;49.306;8.500;2023-06-22T13:45:26;45.42;27.58
9723;DHT22;4900;49.306;8.500;2023-06-22T13:47:52;45.60;27.48
9723;DHT22;4900;49.306;8.500;2023-06-22T13:50:18;45.25;27.55
9723;DHT22;4900;49.306;8.500;2023-06-22T13:52:43;44.83;27.85
9723;DHT22;4900;49.306;8.500;2023-06-22T13:55:09;44.33;28.33
9723;DHT22;4900;49.306;8.500;2023-06-22T13:57:35;43.98;28.58
9723;DHT22;4900;49.306;8.500;2023-06-22T14:00:01;43.49;29.16
9723;DHT22;4900;49.306;8.500;2023-06-22T14:02:29;43.05;29.68
9723;DHT22;4900;49.306;8.500;2023-06-22T14:04:54;42.60;30.38
9723;DHT22;4900;49.306;8.500;2023-06-22T14:07:20;42.13;31.02
9723;DHT22;4900;49.306;8.500;2023-06-22T14:09:46;41.67;31.67
9723;DHT22;4900;49.306;8.500;2023-06-22T14:12:12;41.27;32.15
9723;DHT22;4900;49.306;8.500;2023-06-22T14:14:37;40.72;32.88
9723;DHT22;4900;49.306;8.500;2023-06-22T14:17:04;40.31;33.46
9723;DHT22;4900;49.306;8.500;2023-06-22T14:19:29;40.14;33.72
9723;DHT22;4900;49.306;8.500;2023-06-22T14:21:55;39.86;34.34
9723;DHT22;4900;49.306;8.500;2023-06-22T14:24:22;39.42;34.90
9723;DHT22;4900;49.306;8.500;2023-06-22T14:26:48;38.96;35.69
9723;DHT22;4900;49.306;8.500;2023-06-22T14:29:14;38.68;36.01
9723;DHT22;4900;49.306;8.500;2023-06-22T14:31:40;38.21;36.74
9723;DHT22;4900;49.306;8.500;2023-06-22T14:34:05;37.87;37.21
9723;DHT22;4900;49.306;8.500;2023-06-22T14:36:36;37.49;37.82
9723;DHT22;4900;49.306;8.500;2023-06-22T14:39:01;37.13;38.60
9723;DHT22;4900;49.306;8.500;2023-06-22T14:41:27;36.65;39.56
9723;DHT22;4900;49.306;8.500;2023-06-22T14:43:52;36.31;40.36
9723;DHT22;4900;49.306;8.500;2023-06-22T14:46:19;35.98;41.11
9723;DHT22;4900;49.306;8.500;2023-06-22T14:48:45;35.57;42.45
9723;DHT22;4900;49.306;8.500;2023-06-22T14:51:11;35.26;43.44
9723;DHT22;4900;49.306;8.500;2023-06-22T14:53:38;34.99;44.76
9723;DHT22;4900;49.306;8.500;2023-06-22T14:56:04;34.81;45.61
9723;DHT22;4900;49.306;8.500;2023-06-22T14:58:30;34.67;46.07
9723;DHT22;4900;49.306;8.500;2023-06-22T15:01:02;34.52;46.34
9723;DHT22;4900;49.306;8.500;2023-06-22T15:03:29;34.57;46.07
9723;DHT22;4900;49.306;8.500;2023-06-22T15:05:56;34.70;45.58
9723;DHT22;4900;49.306;8.500;2023-06-22T15:08:22;35.02;45.07
9723;DHT22;4900;49.306;8.500;2023-06-22T15:10:51;35.43;44.50
9723;DHT22;4900;49.306;8.500;2023-06-22T15:13:17;36.02;43.56
9723;DHT22;4900;49.306;8.500;2023-06-22T15:15:44;36.73;42.29
9723;DHT22;4900;49.306;8.500;2023-06-22T15:18:09;37.49;41.31
9723;DHT22;4900;49.306;8.500;2023-06-22T15:20:38;38.32;40.13
9723;DHT22;4900;49.306;8.500;2023-06-22T15:23:06;39.02;38.66
9723;DHT22;4900;49.306;8.500;2023-06-22T15:25:32;39.68;37.63
9723;DHT22;4900;49.306;8.500;2023-06-22T15:27:57;40.24;36.80
9723;DHT22;4900;49.306;8.500;2023-06-22T15:30:23;40.62;35.77
9723;DHT22;4900;49.306;8.500;2023-06-22T15:32:48;40.74;35.35
9723;DHT22;4900;49.306;8.500;2023-06-22T15:35:15;40.83;35.00
9723;DHT22;4900;49.306;8.500;2023-06-22T15:37:43;41.47;34.67
9723;DHT22;4900;49.306;8.500;2023-06-22T15:40:09;41.71;33.98
9723;DHT22;4900;49.306;8.500;2023-06-22T15:42:35;41.91;33.45
9723;DHT22;4900;49.306;8.500;2023-06-22T15:45:00;42.29;32.78
9723;DHT22;4900;49.306;8.500;2023-06-22T15:47:25;42.67;32.49
9723;DHT22;4900;49.306;8.500;2023-06-22T15:49:51;42.78;31.81
9723;DHT22;4900;49.306;8.500;2023-06-22T15:52:18;42.94;31.47
9723;DHT22;4900;49.306;8.500;2023-06-22T15:54:47;43.12;31.25
9723;DHT22;4900;49.306;8.500;2023-06-22T15:57:13;43.39;30.99
9723;DHT22;4900;49.306;8.500;2023-06-22T15:59:40;43.53;30.74
9723;DHT22;4900;49.306;8.500;2023-06-22T16:02:06;43.68;30.62